Time;durP1;ratioP1;P1;durP2;ratioP2;P2;SDS_P1;SDS_P2;PMS_P1;PMS_P2;Temp;Humidity;BMP_temperature;BMP_pressure;BME280_temperature;BME280_humidity;BME280_pressure;Samples;Min_cycle;Max_cycle;Signal;HPM_P1;HPM_P2
2023/03/13 00:01:57;;;;;;;0.57;0.57;;;1.80;72.30;;;;;;4978911;28;20994;-80
2023/03/13 00:04:23;;;;;;;0.83;0.83;;;1.70;72.40;;;;;;4976817;28;20193;-80
2023/03/13 00:06:48;;;;;;;0.47;0.47;;;1.80;72.30;;;;;;4973827;28;20245;-80
2023/03/13 00:09:15;;;;;;;0.83;0.83;;;1.70;72.40;;;;;;4977625;28;20182;-80
2023/03/13 00:11:42;;;;;;;0.97;0.97;;;1.70;72.30;;;;;;4979857;28;20192;-80
2023/03/13 00:14:07;;;;;;;0.73;0.73;;;1.70;72.40;;;;;;4979003;28;20173;-79
2023/03/13 00:16:34;;;;;;;0.47;0.47;;;1.70;72.60;;;;;;4977975;28;20706;-80
2023/03/13 00:19:00;;;;;;;1.50;0.60;;;1.70;72.50;;;;;;4956635;28;20193;-80
2023/03/13 00:21:28;;;;;;;0.93;0.93;;;1.70;72.60;;;;;;4978331;28;20301;-80
2023/03/13 00:23:54;;;;;;;0.50;0.40;;;1.70;72.60;;;;;;4962377;28;20270;-78
2023/03/13 00:26:22;;;;;;;0.90;0.90;;;1.60;72.70;;;;;;4975384;28;20264;-80
2023/03/13 00:28:49;;;;;;;0.50;0.50;;;1.60;72.70;;;;;;4976925;28;20204;-81
2023/03/13 00:31:26;;;;;;;0.70;0.70;;;1.60;72.70;;;;;;4960156;28;20606;-80
2023/03/13 00:33:56;;;;;;;1.87;0.70;;;1.60;72.70;;;;;;4976847;28;20186;-82
2023/03/13 00:36:24;;;;;;;0.83;0.83;;;1.60;72.80;;;;;;4976639;28;20687;-81
2023/03/13 00:38:51;;;;;;;1.43;0.83;;;1.60;72.80;;;;;;4979588;28;20581;-80
2023/03/13 00:41:20;;;;;;;1.57;0.70;;;1.60;72.80;;;;;;4978458;28;20249;-81
2023/03/13 00:43:47;;;;;;;0.57;0.57;;;1.60;72.80;;;;;;4978364;28;21509;-80
2023/03/13 00:46:14;;;;;;;0.70;0.70;;;1.60;72.70;;;;;;4975183;28;20328;-83
2023/03/13 00:48:40;;;;;;;0.80;0.80;;;1.50;72.70;;;;;;4978420;28;20204;-81
2023/03/13 00:51:06;;;;;;;0.80;0.80;;;1.50;72.70;;;;;;4978297;28;20203;-84
2023/03/13 00:53:32;;;;;;;0.87;0.80;;;1.50;72.80;;;;;;4978595;28;20178;-80
2023/03/13 00:56:06;;;;;;;0.67;0.67;;;1.40;72.90;;;;;;4980065;28;21050;-79
2023/03/13 00:58:37;;;;;;;0.40;0.40;;;1.40;72.90;;;;;;4975276;28;20190;-80
2023/03/13 01:01:21;;;;;;;0.43;0.43;;;1.40;72.90;;;;;;4977264;28;20718;-80
2023/03/13 01:03:53;;;;;;;1.13;0.30;;;1.40;73.00;;;;;;4976748;28;20201;-80
2023/03/13 01:06:22;;;;;;;0.80;0.50;;;1.40;73.00;;;;;;4975217;28;20253;-80
2023/03/13 01:08:48;;;;;;;0.60;0.60;;;1.40;73.00;;;;;;4977172;28;20182;-80
2023/03/13 01:11:20;;;;;;;1.40;0.93;;;1.30;73.00;;;;;;4973475;28;20190;-79
2023/03/13 01:13:46;;;;;;;0.40;0.40;;;1.30;73.00;;;;;;4977169;28;20273;-80
2023/03/13 01:16:17;;;;;;;0.60;0.60;;;1.30;73.00;;;;;;4979293;28;20200;-80
2023/03/13 01:18:46;;;;;;;0.97;0.70;;;1.30;73.00;;;;;;4976368;28;20190;-80
2023/03/13 01:21:13;;;;;;;0.70;0.70;;;1.30;72.90;;;;;;4971653;28;20210;-80
2023/03/13 01:23:39;;;;;;;0.67;0.67;;;1.30;73.00;;;;;;4973691;28;20195;-80
2023/03/13 01:26:06;;;;;;;0.43;0.43;;;1.30;73.00;;;;;;4976017;28;20182;-80
2023/03/13 01:28:32;;;;;;;0.27;0.27;;;1.30;72.90;;;;;;4979293;28;20641;-79
2023/03/13 01:30:58;;;;;;;0.57;0.50;;;1.20;72.90;;;;;;4984257;28;20217;-79
2023/03/13 01:33:24;;;;;;;2.70;0.70;;;1.20;73.00;;;;;;4979305;28;20213;-79
2023/03/13 01:35:50;;;;;;;0.50;0.50;;;1.20;73.10;;;;;;4981382;28;20221;-79
2023/03/13 01:38:15;;;;;;;0.77;0.77;;;1.20;73.10;;;;;;4978720;28;20209;-79
2023/03/13 01:40:46;;;;;;;0.80;0.60;;;1.20;73.30;;;;;;4977261;28;20182;-79
2023/03/13 01:43:21;;;;;;;0.40;0.40;;;1.10;73.40;;;;;;4978038;28;20185;-79
2023/03/13 01:45:53;;;;;;;0.60;0.60;;;1.10;73.40;;;;;;4979041;28;20207;-79
2023/03/13 01:48:36;;;;;;;0.40;0.40;;;1.10;73.50;;;;;;4984088;28;20573;-79
2023/03/13 01:51:07;;;;;;;1.90;0.70;;;1.10;73.70;;;;;;4981639;28;20186;-78
2023/03/13 01:53:35;;;;;;;1.10;0.60;;;1.10;73.70;;;;;;4979334;28;20194;-79
2023/03/13 01:56:07;;;;;;;0.77;0.77;;;1.00;73.80;;;;;;4985339;28;20233;-80
2023/03/13 01:58:33;;;;;;;0.60;0.60;;;1.00;73.90;;;;;;4977237;28;20988;-78
2023/03/13 02:00:59;;;;;;;0.70;0.67;;;1.00;73.90;;;;;;4978710;28;20194;-79
2023/03/13 02:03:27;;;;;;;0.50;0.50;;;0.90;74.10;;;;;;4978256;28;20198;-79
2023/03/13 02:05:54;;;;;;;0.33;0.33;;;0.90;74.30;;;;;;4980537;28;20182;-80
2023/03/13 02:08:30;;;;;;;2.10;0.70;;;0.90;74.50;;;;;;4977940;28;20186;-79
2023/03/13 02:11:12;;;;;;;0.37;0.30;;;0.80;74.70;;;;;;4976151;28;20186;-80
2023/03/13 02:13:38;;;;;;;0.83;0.73;;;0.80;74.80;;;;;;4976766;28;20265;-78
2023/03/13 02:16:05;;;;;;;0.60;0.60;;;0.70;75.00;;;;;;4980262;28;20277;-80
2023/03/13 02:18:31;;;;;;;0.53;0.53;;;0.70;75.00;;;;;;4978109;28;20185;-79
2023/03/13 02:21:24;;;;;;;0.50;0.50;;;0.70;75.00;;;;;;4980314;28;20217;-78
2023/03/13 02:24:19;;;;;;;0.50;0.50;;;0.70;75.10;;;;;;4980772;28;20189;-78
2023/03/13 02:26:44;;;;;;;1.20;0.80;;;0.60;75.30;;;;;;4907058;29;20204;-81
2023/03/13 02:29:17;;;;;;;1.70;0.83;;;0.60;75.50;;;;;;4899840;29;20196;-79
2023/03/13 02:31:46;;;;;;;3.40;0.63;;;0.50;75.80;;;;;;4900525;29;20256;-78
2023/03/13 02:34:17;;;;;;;0.40;0.40;;;0.50;75.90;;;;;;4900440;29;20267;-80
2023/03/13 02:36:45;;;;;;;0.90;0.90;;;0.50;76.00;;;;;;4903467;29;20973;-78
2023/03/13 02:39:12;;;;;;;0.97;0.57;;;0.40;76.10;;;;;;4903453;29;20276;-78
2023/03/13 02:41:41;;;;;;;0.70;0.70;;;0.40;76.10;;;;;;4897887;29;20227;-80
2023/03/13 02:44:06;;;;;;;0.77;0.77;;;0.40;76.30;;;;;;4902158;29;20207;-80
2023/03/13 02:46:44;;;;;;;0.50;0.40;;;0.30;76.30;;;;;;4903719;29;20212;-79
2023/03/13 02:49:36;;;;;;;1.30;0.63;;;0.30;76.30;;;;;;4902276;29;20767;-78
2023/03/13 02:52:16;;;;;;;1.10;0.67;;;0.30;76.30;;;;;;4902465;29;20197;-79
2023/03/13 02:54:46;;;;;;;0.87;0.80;;;0.30;76.60;;;;;;4901034;29;20307;-79
2023/03/13 02:57:12;;;;;;;1.03;0.63;;;0.20;76.60;;;;;;4901066;29;20260;-79
2023/03/13 02:59:38;;;;;;;0.50;0.50;;;0.20;76.60;;;;;;4903669;29;20702;-79
2023/03/13 03:02:04;;;;;;;1.13;0.33;;;0.20;76.70;;;;;;4901941;29;20308;-79
2023/03/13 03:04:29;;;;;;;1.33;1.13;;;0.20;77.20;;;;;;4965186;28;20797;-79
2023/03/13 03:06:55;;;;;;;0.50;0.50;;;0.10;77.40;;;;;;4963134;28;20189;-80
2023/03/13 03:09:22;;;;;;;0.73;0.73;;;0.10;77.70;;;;;;4981776;28;20245;-80
2023/03/13 03:11:48;;;;;;;0.80;0.80;;;0.10;78.10;;;;;;4981072;28;20186;-79
2023/03/13 03:14:14;;;;;;;0.60;0.60;;;0.10;78.30;;;;;;4975894;28;20188;-80
2023/03/13 03:16:40;;;;;;;0.90;0.90;;;0.00;78.80;;;;;;4977817;28;20186;-79
2023/03/13 03:19:05;;;;;;;0.57;0.57;;;0.00;79.10;;;;;;4980480;28;20197;-79
2023/03/13 03:21:32;;;;;;;1.03;1.03;;;0.00;79.40;;;;;;4982525;28;20245;-79
2023/03/13 03:23:58;;;;;;;0.83;0.83;;;0.00;79.40;;;;;;4978527;28;20185;-79
2023/03/13 03:26:24;;;;;;;1.10;0.93;;;-0.10;79.80;;;;;;4978740;28;20181;-80
2023/03/13 03:28:50;;;;;;;0.93;0.93;;;-0.10;79.80;;;;;;4979776;28;20173;-79
2023/03/13 03:31:16;;;;;;;0.60;0.60;;;-0.20;80.10;;;;;;4977619;28;20193;-80
2023/03/13 03:33:42;;;;;;;3.60;1.17;;;-0.20;80.50;;;;;;4979561;28;20197;-79
2023/03/13 03:36:15;;;;;;;0.93;0.93;;;-0.20;80.60;;;;;;4977374;28;20764;-79
2023/03/13 03:38:43;;;;;;;1.30;1.30;;;-0.30;80.80;;;;;;4975848;28;20186;-79
2023/03/13 03:41:11;;;;;;;0.60;0.60;;;-0.30;81.00;;;;;;4977316;28;20296;-79
2023/03/13 03:43:37;;;;;;;0.70;0.70;;;-0.30;81.40;;;;;;4979265;28;20198;-78
2023/03/13 03:46:02;;;;;;;0.80;0.80;;;-0.30;81.60;;;;;;4976460;28;20236;-79
2023/03/13 03:48:28;;;;;;;2.23;0.90;;;-0.40;81.50;;;;;;4981636;28;20324;-79
2023/03/13 03:50:54;;;;;;;1.87;1.43;;;-0.40;81.50;;;;;;4979556;28;20256;-79
2023/03/13 03:53:20;;;;;;;0.97;0.97;;;-0.40;81.60;;;;;;4978124;28;20733;-80
2023/03/13 03:55:46;;;;;;;0.77;0.77;;;-0.40;81.80;;;;;;4979344;28;20185;-80
2023/03/13 03:58:13;;;;;;;1.03;0.90;;;-0.50;81.90;;;;;;4977451;28;20205;-80
2023/03/13 04:00:41;;;;;;;3.00;0.60;;;-0.50;81.90;;;;;;4976419;28;20960;-79
2023/03/13 04:03:07;;;;;;;0.57;0.57;;;-0.50;81.90;;;;;;4980888;28;20296;-81
2023/03/13 04:05:33;;;;;;;0.67;0.67;;;-0.50;81.80;;;;;;4984735;28;20223;-79
2023/03/13 04:07:58;;;;;;;0.73;0.73;;;-0.50;81.80;;;;;;4990696;28;20207;-80
2023/03/13 04:10:24;;;;;;;0.47;0.47;;;-0.60;81.90;;;;;;4980937;28;20192;-80
2023/03/13 04:12:49;;;;;;;0.50;0.50;;;-0.60;82.20;;;;;;4977722;28;20186;-80
2023/03/13 04:15:15;;;;;;;0.77;0.77;;;-0.60;82.30;;;;;;4977587;28;20198;-79
2023/03/13 04:17:41;;;;;;;0.80;0.67;;;-0.60;82.40;;;;;;4966181;28;20846;-80
2023/03/13 04:20:07;;;;;;;0.67;0.67;;;-0.60;82.40;;;;;;4977131;28;20186;-80
2023/03/13 04:22:33;;;;;;;0.70;0.70;;;-0.70;82.40;;;;;;4960409;28;20238;-79
2023/03/13 04:24:59;;;;;;;0.50;0.50;;;-0.70;82.40;;;;;;4977458;28;21119;-80
2023/03/13 04:27:25;;;;;;;0.87;0.87;;;-0.70;82.50;;;;;;4977585;28;20826;-80
2023/03/13 04:29:51;;;;;;;0.70;0.70;;;-0.70;82.40;;;;;;4977143;28;20182;-80
2023/03/13 04:32:16;;;;;;;0.43;0.43;;;-0.70;82.60;;;;;;4980428;28;20189;-80
2023/03/13 04:34:42;;;;;;;0.70;0.70;;;-0.70;82.70;;;;;;4975594;28;20257;-80
2023/03/13 04:37:07;;;;;;;0.73;0.73;;;-0.80;83.10;;;;;;4975299;28;20261;-80
2023/03/13 04:39:33;;;;;;;0.40;0.40;;;-0.80;83.00;;;;;;4976475;28;20177;-80
2023/03/13 04:41:59;;;;;;;1.57;0.40;;;-0.80;83.00;;;;;;4983976;28;20794;-80
2023/03/13 04:44:24;;;;;;;0.57;0.57;;;-0.80;83.00;;;;;;4976905;28;20182;-79
2023/03/13 04:46:50;;;;;;;0.40;0.40;;;-0.80;83.20;;;;;;4981255;28;20241;-80
2023/03/13 04:49:16;;;;;;;0.33;0.33;;;-0.80;83.20;;;;;;4977539;28;20190;-79
2023/03/13 04:51:43;;;;;;;0.63;0.63;;;-0.80;83.10;;;;;;4975614;28;20193;-79
2023/03/13 04:54:09;;;;;;;0.70;0.70;;;-0.80;83.20;;;;;;4977932;28;20190;-79
2023/03/13 04:56:35;;;;;;;0.40;0.40;;;-0.80;83.30;;;;;;4979540;28;20186;-79
2023/03/13 04:59:01;;;;;;;1.40;0.73;;;-0.80;83.40;;;;;;4980197;28;20189;-80
2023/03/13 05:01:26;;;;;;;0.40;0.40;;;-0.80;83.40;;;;;;4978697;28;20220;-80
2023/03/13 05:03:52;;;;;;;0.60;0.53;;;-0.80;83.50;;;;;;4974407;28;20309;-77
2023/03/13 05:06:18;;;;;;;0.43;0.43;;;-0.80;83.40;;;;;;4975101;28;20190;-77
2023/03/13 05:08:43;;;;;;;0.60;0.60;;;-0.70;83.40;;;;;;4976691;28;20197;-77
2023/03/13 05:11:09;;;;;;;0.60;0.47;;;-0.70;83.40;;;;;;4977828;28;20221;-78
2023/03/13 05:13:35;;;;;;;0.80;0.60;;;-0.70;83.30;;;;;;4956953;28;20185;-78
2023/03/13 05:16:01;;;;;;;0.53;0.53;;;-0.70;83.10;;;;;;4975389;28;20567;-75
2023/03/13 05:18:27;;;;;;;0.77;0.77;;;-0.70;83.50;;;;;;4975069;28;20185;-75
2023/03/13 05:20:52;;;;;;;1.77;0.80;;;-0.70;83.30;;;;;;4970977;28;20707;-78
2023/03/13 05:23:18;;;;;;;0.90;0.90;;;-0.60;83.30;;;;;;4972557;28;20181;-78
2023/03/13 05:25:44;;;;;;;1.27;0.50;;;-0.60;83.30;;;;;;4977885;28;20189;-79
2023/03/13 05:28:09;;;;;;;1.37;1.00;;;-0.60;83.40;;;;;;4976732;28;20193;-80
2023/03/13 05:30:35;;;;;;;1.53;1.10;;;-0.50;83.40;;;;;;4959308;28;20737;-76
2023/03/13 05:33:01;;;;;;;1.40;1.00;;;-0.50;83.40;;;;;;4976260;28;20918;-78
2023/03/13 05:35:26;;;;;;;0.70;0.63;;;-0.50;83.40;;;;;;4956636;28;20276;-78
2023/03/13 05:37:52;;;;;;;0.80;0.80;;;-0.50;83.50;;;;;;4978210;28;20615;-78
2023/03/13 05:40:18;;;;;;;0.87;0.87;;;-0.40;83.50;;;;;;4975516;28;20702;-83
2023/03/13 05:42:44;;;;;;;0.70;0.70;;;-0.40;83.40;;;;;;4975996;28;20753;-83
2023/03/13 05:45:10;;;;;;;0.63;0.50;;;-0.30;83.10;;;;;;4975167;28;20714;-82
2023/03/13 05:47:37;;;;;;;1.23;0.93;;;-0.30;83.10;;;;;;4973470;28;20186;-82
2023/03/13 05:50:04;;;;;;;1.53;1.10;;;-0.20;83.10;;;;;;4975630;28;20217;-82
2023/03/13 05:52:29;;;;;;;1.37;1.27;;;-0.20;83.00;;;;;;4974747;28;20280;-81
2023/03/13 05:54:55;;;;;;;0.97;0.97;;;-0.10;83.00;;;;;;4972272;28;20284;-80
2023/03/13 05:57:21;;;;;;;1.20;1.20;;;-0.10;82.90;;;;;;4973555;28;20206;-82
2023/03/13 05:59:47;;;;;;;0.87;0.87;;;0.00;82.90;;;;;;4958283;28;20221;-80
2023/03/13 06:02:12;;;;;;;1.37;1.27;;;0.10;82.90;;;;;;4974922;28;20210;-81
2023/03/13 06:04:38;;;;;;;1.20;1.20;;;0.10;82.80;;;;;;4979234;28;20192;-81
2023/03/13 06:07:04;;;;;;;3.30;1.27;;;0.20;82.40;;;;;;4979012;28;20632;-82
2023/03/13 06:09:29;;;;;;;1.40;1.30;;;0.20;82.20;;;;;;4979855;28;20195;-81
2023/03/13 06:11:55;;;;;;;1.73;1.10;;;0.30;81.90;;;;;;4978060;28;20190;-82
2023/03/13 06:14:21;;;;;;;1.13;0.97;;;0.30;81.60;;;;;;4984646;28;20675;-81
2023/03/13 06:16:46;;;;;;;1.03;1.03;;;0.40;81.30;;;;;;4980942;28;20186;-82
2023/03/13 06:19:12;;;;;;;1.17;1.10;;;0.40;81.20;;;;;;4978786;28;20182;-80
2023/03/13 06:21:38;;;;;;;1.13;0.93;;;0.50;80.60;;;;;;4977021;28;20599;-81
2023/03/13 06:24:04;;;;;;;0.90;0.90;;;0.60;80.20;;;;;;4978455;28;20196;-82
2023/03/13 06:26:30;;;;;;;0.93;0.93;;;0.60;80.10;;;;;;4979645;28;20182;-82
2023/03/13 06:28:56;;;;;;;1.80;1.43;;;0.70;80.10;;;;;;4966566;28;20632;-80
2023/03/13 06:31:21;;;;;;;0.97;0.97;;;0.70;80.10;;;;;;4982663;28;20194;-80
2023/03/13 06:33:47;;;;;;;0.70;0.70;;;0.80;79.80;;;;;;4981604;28;20666;-80
2023/03/13 06:36:13;;;;;;;1.17;0.87;;;0.80;79.80;;;;;;4982030;28;20178;-80
2023/03/13 06:38:38;;;;;;;0.87;0.87;;;0.90;79.60;;;;;;4988526;28;20185;-80
2023/03/13 06:41:04;;;;;;;1.40;1.00;;;1.00;79.10;;;;;;4994277;28;20186;-81
2023/03/13 06:43:29;;;;;;;0.70;0.70;;;1.10;78.60;;;;;;4991571;28;20252;-82
2023/03/13 06:45:55;;;;;;;1.07;0.77;;;1.20;78.50;;;;;;4988783;28;20631;-81
2023/03/13 06:48:22;;;;;;;1.47;1.37;;;1.20;78.70;;;;;;4994306;28;20249;-81
2023/03/13 06:50:48;;;;;;;0.73;0.73;;;1.30;78.40;;;;;;4976219;28;20206;-80
2023/03/13 06:53:17;;;;;;;0.63;0.63;;;1.30;78.30;;;;;;4993691;28;20190;-82
2023/03/13 06:55:43;;;;;;;1.23;1.23;;;1.40;78.10;;;;;;4995600;28;20178;-81
2023/03/13 06:58:09;;;;;;;1.07;0.93;;;1.40;77.90;;;;;;4979253;28;20698;-80
2023/03/13 07:00:35;;;;;;;1.60;1.50;;;1.50;77.70;;;;;;4993032;28;20186;-81
2023/03/13 07:03:00;;;;;;;1.87;1.60;;;1.60;77.80;;;;;;4968961;28;20333;-80
2023/03/13 07:05:26;;;;;;;1.60;1.20;;;1.60;77.00;;;;;;4983611;28;20225;-81
2023/03/13 07:07:52;;;;;;;1.13;1.13;;;1.70;76.80;;;;;;4983394;28;20189;-80
2023/03/13 07:10:18;;;;;;;1.13;1.03;;;1.70;76.30;;;;;;4995112;28;20190;-81
2023/03/13 07:12:43;;;;;;;2.63;1.23;;;1.80;76.50;;;;;;4990178;28;20667;-81
2023/03/13 07:15:10;;;;;;;1.77;1.77;;;1.90;76.50;;;;;;4983292;28;20293;-81
2023/03/13 07:17:36;;;;;;;3.13;1.70;;;1.90;76.70;;;;;;4994403;28;20190;-80
2023/03/13 07:20:04;;;;;;;1.60;1.57;;;2.00;76.80;;;;;;4986706;28;20182;-80
2023/03/13 07:22:29;;;;;;;1.33;1.17;;;2.10;76.70;;;;;;4981081;28;20980;-79
2023/03/13 07:24:55;;;;;;;1.87;1.77;;;2.20;76.20;;;;;;4981645;28;20190;-79
2023/03/13 07:27:21;;;;;;;1.47;1.37;;;2.20;75.70;;;;;;4978332;28;20252;-79
2023/03/13 07:29:48;;;;;;;3.97;1.93;;;2.30;75.90;;;;;;4960973;28;20213;-78
2023/03/13 07:32:14;;;;;;;2.27;1.43;;;2.40;75.30;;;;;;4971205;28;20194;-78
2023/03/13 07:34:43;;;;;;;3.13;1.80;;;2.50;75.60;;;;;;4974821;28;20223;-77
2023/03/13 07:37:15;;;;;;;1.63;1.50;;;2.60;75.30;;;;;;4980233;28;20193;-76
2023/03/13 07:39:44;;;;;;;1.87;1.77;;;2.70;74.90;;;;;;4976640;28;20273;-77
2023/03/13 07:42:11;;;;;;;2.47;2.17;;;2.80;74.60;;;;;;4960578;28;20215;-77
2023/03/13 07:44:37;;;;;;;1.73;1.63;;;2.90;75.30;;;;;;4977645;28;20190;-77
2023/03/13 07:47:03;;;;;;;1.97;1.80;;;3.00;75.50;;;;;;4978583;28;20979;-77
2023/03/13 07:49:30;;;;;;;1.70;1.70;;;3.20;75.00;;;;;;4957930;28;20186;-78
2023/03/13 07:51:56;;;;;;;2.47;2.03;;;3.30;74.40;;;;;;4979267;28;20276;-77
2023/03/13 07:54:22;;;;;;;1.80;1.70;;;3.50;73.20;;;;;;4977079;28;21402;-77
2023/03/13 07:56:48;;;;;;;2.33;2.13;;;3.70;72.80;;;;;;4973186;28;20190;-77
2023/03/13 07:59:14;;;;;;;2.03;1.73;;;3.90;72.30;;;;;;4979247;28;20192;-76
2023/03/13 08:01:43;;;;;;;2.70;2.33;;;4.20;71.90;;;;;;4976306;28;20221;-77
2023/03/13 08:04:12;;;;;;;2.77;2.13;;;4.60;71.00;;;;;;4972286;28;20181;-78
2023/03/13 08:06:39;;;;;;;3.70;2.33;;;5.00;69.90;;;;;;4960513;28;20182;-78
2023/03/13 08:09:05;;;;;;;2.87;2.67;;;5.70;68.90;;;;;;4978745;28;20671;-77
2023/03/13 08:11:31;;;;;;;3.33;3.07;;;6.50;67.90;;;;;;4981080;28;20193;-77
2023/03/13 08:13:57;;;;;;;8.07;3.20;;;7.20;66.00;;;;;;4955691;28;20182;-77
2023/03/13 08:16:25;;;;;;;2.80;2.60;;;7.90;65.20;;;;;;4972974;28;20185;-77
2023/03/13 08:18:54;;;;;;;3.30;3.00;;;8.60;62.40;;;;;;4955499;28;20190;-79
2023/03/13 08:21:22;;;;;;;3.00;2.73;;;9.30;61.60;;;;;;4977106;28;20575;-79
2023/03/13 08:23:51;;;;;;;6.17;3.43;;;10.00;60.40;;;;;;4973753;28;20265;-80
2023/03/13 08:26:19;;;;;;;5.23;3.57;;;10.70;57.70;;;;;;4964167;28;20268;-78
2023/03/13 08:28:50;;;;;;;6.73;3.63;;;11.50;56.50;;;;;;4975944;28;20178;-78
2023/03/13 08:31:18;;;;;;;4.65;3.50;;;12.10;56.10;;;;;;4975629;28;20186;-79
2023/03/13 08:33:46;;;;;;;5.10;3.83;;;12.80;56.00;;;;;;4974614;28;20208;-80
2023/03/13 08:36:17;;;;;;;7.22;4.28;;;13.70;56.00;;;;;;4975497;28;20612;-78
2023/03/13 08:38:44;;;;;;;4.68;4.25;;;14.60;55.30;;;;;;4972880;28;20185;-79
2023/03/13 08:41:11;;;;;;;4.20;3.90;;;15.60;54.30;;;;;;4975656;28;20585;-79
2023/03/13 08:43:37;;;;;;;5.97;4.68;;;16.50;51.70;;;;;;4972925;28;20277;-79
2023/03/13 08:46:03;;;;;;;6.68;5.28;;;17.10;49.50;;;;;;4974817;28;20229;-79
2023/03/13 08:48:28;;;;;;;5.50;4.45;;;16.90;48.30;;;;;;4977143;28;20236;-80
2023/03/13 08:51:05;;;;;;;5.38;4.90;;;17.10;48.80;;;;;;4977553;28;20248;-79
2023/03/13 08:53:32;;;;;;;7.05;4.72;;;17.70;48.70;;;;;;4977438;28;20272;-78
2023/03/13 08:55:58;;;;;;;4.82;4.32;;;18.10;48.70;;;;;;4975104;28;20186;-80
2023/03/13 08:58:24;;;;;;;6.97;5.28;;;18.70;50.20;;;;;;4976569;28;20209;-79
2023/03/13 09:00:50;;;;;;;5.47;4.95;;;19.00;46.90;;;;;;4980384;28;20230;-79
2023/03/13 09:03:16;;;;;;;6.20;5.15;;;19.00;46.70;;;;;;4978385;28;20229;-79
2023/03/13 09:05:43;;;;;;;6.78;5.30;;;19.30;46.70;;;;;;4979209;28;20179;-79
2023/03/13 09:08:08;;;;;;;5.93;5.18;;;19.60;45.00;;;;;;4971740;28;20193;-80
2023/03/13 09:10:34;;;;;;;7.80;5.43;;;19.90;45.60;;;;;;4978739;28;20257;-81
2023/03/13 09:13:01;;;;;;;5.80;4.95;;;19.90;43.60;;;;;;4974199;28;20685;-80
2023/03/13 09:15:27;;;;;;;6.03;5.07;;;20.10;45.50;;;;;;4978848;28;20185;-80
2023/03/13 09:17:53;;;;;;;5.15;4.68;;;20.40;44.30;;;;;;4973667;28;20252;-80
2023/03/13 09:20:19;;;;;;;4.72;4.32;;;20.80;45.30;;;;;;4977430;28;20658;-79
2023/03/13 09:22:45;;;;;;;4.90;4.60;;;21.30;46.00;;;;;;4975562;28;21034;-81
2023/03/13 09:25:12;;;;;;;5.97;5.45;;;22.10;44.90;;;;;;4980053;28;20186;-80
2023/03/13 09:27:37;;;;;;;5.50;5.00;;;22.60;45.40;;;;;;4979223;28;20197;-79
2023/03/13 09:30:03;;;;;;;5.13;4.80;;;23.10;43.70;;;;;;4961959;28;20181;-80
2023/03/13 09:32:29;;;;;;;5.93;5.00;;;23.70;43.60;;;;;;4976006;28;20190;-79
2023/03/13 09:34:55;;;;;;;5.43;4.93;;;24.40;46.20;;;;;;4974669;28;20190;-79
2023/03/13 09:37:21;;;;;;;6.63;5.93;;;24.90;43.40;;;;;;4972908;28;20825;-79
2023/03/13 09:39:50;;;;;;;6.30;5.72;;;25.40;43.30;;;;;;4976340;28;20244;-79
2023/03/13 09:42:19;;;;;;;5.63;5.22;;;25.90;42.20;;;;;;4976883;28;20279;-80
2023/03/13 09:45:08;;;;;;;7.05;5.53;;;26.30;42.40;;;;;;4972855;28;20201;-78
2023/03/13 09:47:53;;;;;;;7.43;5.93;;;26.30;36.70;;;;;;4904300;29;20192;-79
2023/03/13 09:50:28;;;;;;;5.72;5.13;;;25.70;39.10;;;;;;4899187;29;20184;-79
2023/03/13 09:53:01;;;;;;;6.32;5.72;;;25.90;39.90;;;;;;4900193;29;20192;-80
2023/03/13 09:55:31;;;;;;;5.72;5.25;;;26.00;38.70;;;;;;4905178;29;20188;-78
2023/03/13 09:58:12;;;;;;;6.00;5.45;;;25.50;38.80;;;;;;4901078;29;20610;-79
2023/03/13 10:00:45;;;;;;;6.18;5.65;;;25.20;38.40;;;;;;4903047;29;20216;-79
2023/03/13 10:03:16;;;;;;;5.53;5.10;;;24.90;39.60;;;;;;4903212;29;20224;-78
2023/03/13 10:05:54;;;;;;;5.70;5.25;;;24.80;40.50;;;;;;4899402;29;20212;-79
2023/03/13 10:08:24;;;;;;;4.93;4.53;;;25.10;40.40;;;;;;4902298;29;20188;-79
2023/03/13 10:10:56;;;;;;;5.88;5.38;;;25.20;40.40;;;;;;4898471;29;20602;-77
2023/03/13 10:13:32;;;;;;;5.03;4.68;;;25.70;41.00;;;;;;4901660;29;20193;-79
2023/03/13 10:16:04;;;;;;;5.90;5.28;;;26.30;40.10;;;;;;4899066;29;20341;-79
2023/03/13 10:18:31;;;;;;;6.03;5.40;;;26.70;38.20;;;;;;4899036;29;20608;-81
2023/03/13 10:21:00;;;;;;;6.68;5.97;;;26.70;39.40;;;;;;4903996;29;20189;-81
2023/03/13 10:24:04;;;;;;;6.57;5.75;;;26.90;39.60;;;;;;4896567;28;20252;-81
2023/03/13 10:26:33;;;;;;;27.70;6.63;;;26.80;38.10;;;;;;4920055;29;20410;-77
2023/03/13 10:29:29;;;;;;;4.57;4.38;;;26.80;39.60;;;;;;4927329;29;20198;-79
2023/03/13 10:31:57;;;;;;;4.40;4.05;;;26.50;38.30;;;;;;4891293;29;20411;-78
2023/03/13 10:34:26;;;;;;;4.53;4.13;;;26.40;39.50;;;;;;4893833;29;20177;-79
2023/03/13 10:36:58;;;;;;;5.25;4.85;;;26.50;39.20;;;;;;4873640;29;20227;-76
2023/03/13 10:39:26;;;;;;;8.88;4.97;;;26.80;41.80;;;;;;4885549;29;20182;-81
2023/03/13 10:42:08;;;;;;;5.35;4.40;;;27.10;38.20;;;;;;4877226;29;20237;-77
2023/03/13 10:44:33;;;;;;;4.22;4.00;;;27.30;41.00;;;;;;4885469;29;20817;-76
2023/03/13 10:47:01;;;;;;;4.78;4.30;;;27.40;41.80;;;;;;4878216;29;20276;-78
2023/03/13 10:49:28;;;;;;;4.25;4.03;;;27.60;40.70;;;;;;4880496;29;20694;-80
2023/03/13 10:51:56;;;;;;;6.32;4.82;;;27.50;40.30;;;;;;4881599;29;20238;-79
2023/03/13 10:54:36;;;;;;;5.03;4.63;;;27.50;40.10;;;;;;4875958;29;21035;-78
2023/03/13 10:57:17;;;;;;;6.13;5.18;;;27.00;40.50;;;;;;4869854;29;20204;-78
2023/03/13 10:59:50;;;;;;;4.60;4.28;;;26.00;38.40;;;;;;4866245;29;20190;-76
2023/03/13 11:02:37;;;;;;;4.93;4.05;;;25.60;41.20;;;;;;4881512;29;20227;-76
2023/03/13 11:05:23;;;;;;;3.83;3.63;;;25.40;39.10;;;;;;4902923;29;20176;-76
2023/03/13 11:07:50;;;;;;;5.28;4.82;;;25.60;41.00;;;;;;4926162;28;20206;-75
2023/03/13 11:10:28;;;;;;;5.40;4.90;;;25.60;40.40;;;;;;4959927;28;20715;-76
2023/03/13 11:12:56;;;;;;;4.38;4.00;;;25.30;40.50;;;;;;4974574;28;20178;-78
2023/03/13 11:15:31;;;;;;;5.30;4.90;;;25.00;42.00;;;;;;4978324;28;20191;-75
2023/03/13 11:18:18;;;;;;;4.68;4.28;;;25.00;41.90;;;;;;4975857;28;20229;-76
2023/03/13 11:20:45;;;;;;;5.82;5.22;;;25.00;41.00;;;;;;4977812;28;20264;-76
2023/03/13 11:23:23;;;;;;;4.93;4.53;;;25.20;42.20;;;;;;4980388;28;20217;-76
2023/03/13 11:26:13;;;;;;;4.93;4.45;;;25.50;42.80;;;;;;4976717;28;20268;-77
2023/03/13 11:28:47;;;;;;;8.13;4.93;;;25.80;39.30;;;;;;4980664;28;20186;-79
2023/03/13 11:31:23;;;;;;;4.85;4.45;;;25.80;41.00;;;;;;4973568;28;20186;-76
2023/03/13 11:34:24;;;;;;;5.18;4.90;;;25.80;40.30;;;;;;4974313;28;20194;-74
2023/03/13 11:37:09;;;;;;;5.00;4.57;;;25.80;40.10;;;;;;4956641;28;20276;-75
2023/03/13 11:39:56;;;;;;;5.78;5.15;;;25.70;41.00;;;;;;4975371;28;20265;-75
2023/03/13 11:42:37;;;;;;;5.32;4.82;;;25.50;39.40;;;;;;4963257;28;20229;-74
2023/03/13 11:45:14;;;;;;;4.70;4.40;;;25.00;40.40;;;;;;4976533;28;21907;-75
2023/03/13 11:47:50;;;;;;;5.68;5.20;;;24.90;43.10;;;;;;4974165;28;20742;-75
2023/03/13 11:50:42;;;;;;;5.20;4.80;;;25.00;41.40;;;;;;4973438;28;20221;-75
2023/03/13 11:53:35;;;;;;;5.30;4.97;;;25.30;41.70;;;;;;4977026;28;20194;-75
2023/03/13 11:56:12;;;;;;;5.75;5.20;;;25.60;41.20;;;;;;4978635;28;20571;-75
2023/03/13 11:59:17;;;;;;;5.55;5.15;;;26.00;41.10;;;;;;4975445;28;20202;-75
2023/03/13 12:01:56;;;;;;;4.95;4.60;;;26.20;40.40;;;;;;4907297;29;20307;-75
2023/03/13 12:04:38;;;;;;;7.40;5.05;;;26.00;40.40;;;;;;4912982;29;20272;-74
2023/03/13 12:07:39;;;;;;;5.70;5.10;;;25.90;39.70;;;;;;4911259;29;20204;-75
2023/03/13 12:10:36;;;;;;;5.93;5.43;;;26.10;38.50;;;;;;4892425;29;20228;-76
2023/03/13 12:13:29;;;;;;;5.22;4.72;;;26.30;41.70;;;;;;4897836;29;20205;-77
2023/03/13 12:15:59;;;;;;;5.60;5.20;;;26.70;38.50;;;;;;4894892;29;20208;-74
2023/03/13 12:18:41;;;;;;;6.10;5.55;;;26.90;38.40;;;;;;4898169;29;20208;-75
2023/03/13 12:21:18;;;;;;;5.75;5.35;;;26.60;39.30;;;;;;4896835;29;20196;-74
2023/03/13 12:24:17;;;;;;;5.78;5.38;;;26.30;41.00;;;;;;4894735;29;20200;-75
2023/03/13 12:27:14;;;;;;;5.15;4.82;;;26.20;38.20;;;;;;4890903;29;20765;-75
2023/03/13 12:29:47;;;;;;;5.70;5.20;;;26.00;39.70;;;;;;4893944;29;20212;-74
2023/03/13 12:32:21;;;;;;;5.68;5.18;;;26.00;40.30;;;;;;4891997;29;20344;-74
2023/03/13 12:35:07;;;;;;;6.72;5.57;;;26.10;41.20;;;;;;4892514;29;20207;-78
2023/03/13 12:37:45;;;;;;;6.13;5.53;;;26.10;38.60;;;;;;4904242;29;20609;-74
2023/03/13 12:40:18;;;;;;;5.63;5.28;;;26.10;39.30;;;;;;4925214;29;20654;-73
2023/03/13 12:43:14;;;;;;;5.97;5.47;;;26.10;40.60;;;;;;4930602;29;20230;-73
2023/03/13 12:45:53;;;;;;;9.38;5.85;;;26.20;39.60;;;;;;4931018;29;20214;-73
2023/03/13 12:48:46;;;;;;;6.53;5.93;;;26.30;39.40;;;;;;4931584;29;20196;-73
2023/03/13 12:51:33;;;;;;;8.27;5.63;;;26.00;38.40;;;;;;4936663;28;20680;-73
2023/03/13 12:54:11;;;;;;;7.63;5.22;;;25.90;39.60;;;;;;4932542;29;20259;-73
2023/03/13 12:56:43;;;;;;;7.45;5.50;;;25.90;39.50;;;;;;4933603;29;20210;-73
2023/03/13 12:59:18;;;;;;;5.82;5.32;;;26.20;40.80;;;;;;4935976;29;20187;-73
2023/03/13 13:01:56;;;;;;;6.32;5.72;;;26.50;40.60;;;;;;4930266;29;20301;-73
2023/03/13 13:04:27;;;;;;;6.05;5.38;;;26.70;39.40;;;;;;4935343;29;20182;-74
2023/03/13 13:07:01;;;;;;;6.13;5.60;;;26.70;39.60;;;;;;4959048;28;20276;-73